Aviation Digital Data Service (ADDS)

Output produced by TAFs form (1453 UTC 25 August 2016)
found at http://aviationweather.gov/adds/tafs/
 
KSAF 251120Z 2512/2612 02005KT P6SM SKC 
     FM251900 17008KT P6SM SCT070 
     FM252300 14010G16KT P6SM VCSH SCT090 BKN150 
     FM260500 03007KT P6SM FEW050 SCT150